Terminal Aerodrome Forecast
Issued by NWS Charleston, WV

Current Version | Previous Version | Graphics & Text | Print | Product List | Glossary On
Versions: 1 2 3 4 5 6 7 8 9 10 11 12 13 14 15 16 17 18 19 20 21 22 23 24 25 26
000
FTUS41 KRLX 301700 RRA
TAFCRW
TAF
KCRW 301746Z 3018/3118 28012G23KT P6SM SCT050
     FM302300 29010KT P6SM SCT060
     FM310200 26004KT P6SM SCT120
     FM311200 21008KT P6SM BKN120
     FM311500 23013G28KT P6SM BKN120=

USA.gov is the U.S. government's official web portal to all federal, state and local government web resources and services.